Weather History for Brookings, SD

Change the Weather History Date:

Monday, February 11, 2013

  Actual Average Record
Temperature  
Mean Temperature 20 °F -  
Max Temperature 24 °F 27 °F 53 °F (2005)
Min Temperature 17 °F 10 °F -7 °F (2012)
Degree Days  
Heating Degree Days 44    
Moisture  
Dew Point 16 °F    
Average Humidity 86    
Maximum Humidity 93    
Minimum Humidity 74    
Precipitation  
Precipitation 0.00 in - - ()
Sea Level Pressure  
Sea Level Pressure 29.94 in    
Wind  
Wind Speed 23 mph (NW)    
Max Wind Speed 33 mph    
Max Gust Speed 40 mph    
Visibility 6 miles    
Events      
Averages and records for this station are not official NWS values.
T = Trace of Precipitation, MM = Missing Value Source: NWS Daily Summary

Daily Weather History Graph

Daily Weather History Graph

Search for Another Location

Airport:

Trip Planner

Search our weather history database for the weather conditions in past years. The results will help you decide how hot, cold, wet, or windy it might be!

Date:

Astronomy

Feb. 11, 2013 Rise Set
Actual Time 7:32 AM CST 5:51 PM CST
Civil Twilight 7:02 AM CST 6:21 PM CST
Nautical Twilight 6:28 AM CST 6:55 PM CST
Astronomical Twilight 5:54 AM CST 7:29 PM CST
Moon 7:51 AM CST (2/11) 7:56 PM CST (2/11)
Length of Visible Light 11h 19m
Length of Day
10h 19m
Waxing Crescent, 3% of the Moon is Illuminated
Feb 11
Waxing Crescent
Feb 17
First Quarter
Feb 25
Full
Mar 4
Last Quarter
Mar 11
New

Hourly Weather History & Observations

Time (CST) Temp. Windchill Dew Point Humidity Pressure Visibility Wind Dir Wind Speed Gust Speed Precip Events Conditions
12:15 AM 24.8 °F 7.9 °F 21.2 °F 86% 29.63 in 1.5 mi NNW 29.9 mph 38.0 mph N/A   Overcast
12:35 AM 24.8 °F 7.9 °F 21.2 °F 86% 29.64 in 1.0 mi NNW 29.9 mph 36.8 mph N/A   Overcast
12:55 AM 23.0 °F 6.0 °F 21.2 °F 93% 29.66 in 1.2 mi NNW 27.6 mph 35.7 mph N/A   Overcast
1:15 AM 23.0 °F 5.1 °F 21.2 °F 93% 29.66 in 1.2 mi NNW 31.1 mph 40.3 mph N/A   Overcast
1:35 AM 23.0 °F 5.1 °F 19.4 °F 86% 29.68 in 1.2 mi NNW 31.1 mph 38.0 mph N/A   Overcast
2:15 AM 21.2 °F 2.2 °F 19.4 °F 93% 29.71 in 1.0 mi NNW 33.4 mph 39.1 mph N/A   Overcast
2:35 AM - - - N/A% 29.72 in 1.2 mi NNW 33.4 mph 40.3 mph N/A   Overcast
2:55 AM 21.2 °F 2.7 °F 19.4 °F 93% 29.73 in 1.2 mi NNW 31.1 mph 38.0 mph N/A   Overcast
3:15 AM 21.2 °F 3.5 °F 19.4 °F 93% 29.74 in 2.0 mi NNW 27.6 mph 38.0 mph N/A   Overcast
3:35 AM 21.2 °F 3.3 °F 17.6 °F 86% 29.75 in 2.0 mi NNW 28.8 mph 38.0 mph N/A   Overcast
3:55 AM 21.2 °F 3.3 °F 17.6 °F 86% 29.76 in 1.8 mi NNW 28.8 mph 33.4 mph N/A   Overcast
4:15 AM 21.2 °F 3.9 °F 17.6 °F 86% 29.78 in 2.0 mi NNW 26.5 mph 31.1 mph N/A   Overcast
4:35 AM 21.2 °F 4.2 °F 17.6 °F 86% 29.79 in 2.5 mi NNW 25.3 mph 32.2 mph N/A   Overcast
4:55 AM 19.4 °F 2.1 °F 17.6 °F 93% 29.80 in 5.0 mi NNW 24.2 mph 31.1 mph N/A   Overcast
5:15 AM 19.4 °F 2.8 °F 17.6 °F 93% 29.82 in 8.0 mi NNW 21.9 mph - N/A   Overcast
5:35 AM 21.2 °F 4.9 °F 17.6 °F 86% 29.83 in 5.0 mi NNW 23.0 mph 27.6 mph N/A   Overcast
5:55 AM 19.4 °F 1.8 °F 15.8 °F 86% 29.84 in 7.0 mi NNW 25.3 mph 29.9 mph N/A   Overcast
6:15 AM 19.4 °F 1.8 °F 15.8 °F 86% 29.86 in 5.0 mi North 25.3 mph 32.2 mph N/A   Overcast
6:35 AM 19.4 °F 1.4 °F 15.8 °F 86% 29.87 in 7.0 mi NNW 26.5 mph 31.1 mph N/A   Overcast
6:55 AM 19.4 °F 3.6 °F 15.8 °F 86% 29.88 in 9.0 mi NNW 19.6 mph 29.9 mph N/A   Overcast
7:15 AM 19.4 °F 3.2 °F 15.8 °F 86% 29.89 in 10.0 mi NNW 20.7 mph - N/A   Overcast
7:35 AM 19.4 °F 4.1 °F 15.8 °F 86% 29.90 in 10.0 mi NNW 18.4 mph 25.3 mph N/A   Overcast
7:55 AM 19.4 °F 2.5 °F 17.6 °F 93% 29.91 in 8.0 mi NNW 23.0 mph 26.5 mph N/A   Overcast
8:15 AM 19.4 °F 2.8 °F 15.8 °F 86% 29.92 in 9.0 mi NNW 21.9 mph - N/A   Overcast
8:35 AM 19.4 °F 2.5 °F 15.8 °F 86% 29.92 in 9.0 mi NNW 23.0 mph 27.6 mph N/A   Overcast
8:55 AM 19.4 °F 2.8 °F 15.8 °F 86% 29.94 in 5.0 mi NNW 21.9 mph - N/A   Overcast
9:15 AM 19.4 °F 3.6 °F 17.6 °F 93% 29.95 in 1.5 mi NNW 19.6 mph - N/A   Overcast
9:35 AM 19.4 °F 3.2 °F 15.8 °F 86% 29.96 in 1.0 mi NNW 20.7 mph 26.5 mph N/A   Overcast
9:55 AM 19.4 °F 4.1 °F 15.8 °F 86% 29.97 in 1.2 mi NNW 18.4 mph 24.2 mph N/A   Overcast
10:15 AM 19.4 °F 3.2 °F 15.8 °F 86% 29.98 in 1.8 mi NNW 20.7 mph 27.6 mph N/A   Overcast
10:35 AM 19.4 °F 4.1 °F 15.8 °F 86% 29.99 in 2.5 mi NNW 18.4 mph 25.3 mph N/A   Overcast
10:55 AM 19.4 °F 2.5 °F 14.0 °F 80% 30.00 in 2.5 mi NNW 23.0 mph 27.6 mph N/A   Overcast
11:15 AM 19.4 °F 4.5 °F 14.0 °F 80% 30.01 in 8.0 mi NNW 17.3 mph - N/A   Overcast
11:35 AM 19.4 °F 3.6 °F 14.0 °F 80% 30.02 in 8.0 mi NNW 19.6 mph - N/A   Overcast
11:55 AM 19.4 °F 3.2 °F 15.8 °F 86% 30.02 in 5.0 mi NNW 20.7 mph - N/A   Overcast
12:15 PM 19.4 °F 2.1 °F 15.8 °F 86% 30.01 in 1.5 mi NNW 24.2 mph - N/A   Overcast
12:35 PM 19.4 °F 2.5 °F 15.8 °F 86% 30.01 in 2.5 mi NNW 23.0 mph 26.5 mph N/A   Overcast
12:55 PM 19.4 °F 2.5 °F 15.8 °F 86% 30.01 in 1.0 mi NNW 23.0 mph - N/A   Overcast
1:15 PM 19.4 °F 2.5 °F 15.8 °F 86% 30.01 in 3.0 mi NNW 23.0 mph 26.5 mph N/A   Overcast
1:35 PM 19.4 °F 3.2 °F 15.8 °F 86% 30.02 in 8.0 mi NNW 20.7 mph 24.2 mph N/A   Overcast
1:55 PM 19.4 °F 3.2 °F 15.8 °F 86% 30.01 in 3.0 mi NNW 20.7 mph 25.3 mph N/A   Overcast
2:15 PM 19.4 °F 3.2 °F 15.8 °F 86% 30.02 in 8.0 mi NNW 20.7 mph 24.2 mph N/A   Overcast
2:35 PM 21.2 °F 5.6 °F 15.8 °F 80% 30.01 in 5.0 mi NNW 20.7 mph 25.3 mph N/A   Overcast
2:55 PM 19.4 °F 4.5 °F 12.2 °F 74% 30.02 in 10.0 mi NNW 17.3 mph - N/A   Overcast
3:15 PM 19.4 °F 4.5 °F 15.8 °F 86% 30.03 in 8.0 mi NNW 17.3 mph 23.0 mph N/A   Overcast
3:35 PM 19.4 °F 2.8 °F 15.8 °F 86% 30.04 in 10.0 mi NNW 21.9 mph 26.5 mph N/A   Overcast
3:55 PM 17.6 °F 1.7 °F 12.2 °F 79% 30.04 in 10.0 mi NNW 18.4 mph - N/A   Overcast
4:55 PM 17.6 °F 5.0 °F 12.2 °F 79% 30.04 in 10.0 mi NNW 11.5 mph - N/A   Overcast
5:15 PM 17.6 °F 5.7 °F 12.2 °F 79% 30.04 in 10.0 mi NNW 10.4 mph - N/A   Overcast
5:35 PM 17.6 °F 5.7 °F 12.2 °F 79% 30.04 in 10.0 mi NW 10.4 mph - N/A   Overcast
5:55 PM 17.6 °F 5.7 °F 12.2 °F 79% 30.04 in 10.0 mi NW 10.4 mph - N/A   Overcast
6:15 PM 17.6 °F 5.7 °F 12.2 °F 79% 30.03 in 10.0 mi NNW 10.4 mph - N/A   Overcast
6:35 PM 17.6 °F 8.2 °F 12.2 °F 79% 30.04 in 10.0 mi WNW 6.9 mph - N/A   Overcast
6:55 PM 17.6 °F 9.3 °F 12.2 °F 79% 30.04 in 10.0 mi West 5.8 mph - N/A   Overcast
7:15 PM 17.6 °F 9.3 °F 12.2 °F 79% 30.04 in 10.0 mi WNW 5.8 mph - N/A   Overcast
7:35 PM 17.6 °F 9.3 °F 14.0 °F 86% 30.04 in 10.0 mi WNW 5.8 mph - N/A   Overcast
7:55 PM 17.6 °F 12.3 °F 14.0 °F 86% 30.05 in 10.0 mi WSW 3.5 mph - N/A   Overcast
8:15 PM 19.4 °F 12.8 °F 15.8 °F 86% 30.05 in 10.0 mi West 4.6 mph - N/A   Overcast
8:35 PM 19.4 °F 14.3 °F 15.8 °F 86% 30.05 in 10.0 mi West 3.5 mph - N/A   Overcast
8:55 PM 19.4 °F 12.8 °F 15.8 °F 86% 30.04 in 10.0 mi West 4.6 mph - N/A   Overcast
9:15 PM 19.4 °F 11.5 °F 15.8 °F 86% 30.04 in 10.0 mi West 5.8 mph - N/A   Overcast
9:35 PM 19.4 °F 11.5 °F 15.8 °F 86% 30.04 in 10.0 mi West 5.8 mph - N/A   Overcast
9:55 PM 19.4 °F 12.8 °F 15.8 °F 86% 30.04 in 10.0 mi WSW 4.6 mph - N/A   Overcast
10:15 PM 19.4 °F 10.4 °F 15.8 °F 86% 30.03 in 10.0 mi WSW 6.9 mph - N/A   Overcast
10:35 PM 19.4 °F 10.4 °F 17.6 °F 93% 30.03 in 10.0 mi WSW 6.9 mph - N/A   Overcast
10:55 PM 19.4 °F 10.4 °F 17.6 °F 93% 30.03 in 10.0 mi WSW 6.9 mph - N/A   Overcast
11:15 PM 19.4 °F 10.4 °F 17.6 °F 93% 30.03 in 10.0 mi WSW 6.9 mph - N/A   Mostly Cloudy
11:35 PM 19.4 °F 9.5 °F 15.8 °F 86% 30.03 in 10.0 mi WSW 8.1 mph - N/A   Partly Cloudy
11:55 PM 19.4 °F 8.6 °F 15.8 °F 86% 30.02 in 10.0 mi WSW 9.2 mph - N/A   Clear